createdAt,value
2023-02-07T00:01:29.873Z,3.03
2023-02-07T00:03:57.470Z,3.06
2023-02-07T00:06:30.097Z,3.06
2023-02-07T00:08:59.791Z,3.05
2023-02-07T00:11:26.813Z,3.04
2023-02-07T00:13:56.666Z,3.06
2023-02-07T00:16:27.985Z,2.98
2023-02-07T00:18:55.606Z,2.98
2023-02-07T00:21:25.080Z,2.97
2023-02-07T00:23:53.553Z,2.94
2023-02-07T00:26:23.834Z,2.91
2023-02-07T00:28:53.289Z,2.88
2023-02-07T00:31:28.333Z,2.79
2023-02-07T00:34:00.469Z,2.91
2023-02-07T00:36:29.841Z,2.75
2023-02-07T00:38:59.797Z,2.71
2023-02-07T00:41:28.270Z,2.62
2023-02-07T00:43:55.867Z,2.59
2023-02-07T00:46:23.187Z,2.55
2023-02-07T00:48:50.942Z,2.58
2023-02-07T00:51:18.670Z,2.61
2023-02-07T00:53:45.717Z,2.56
2023-02-07T00:56:12.751Z,2.57
2023-02-07T00:58:39.838Z,2.60
2023-02-07T01:01:07.152Z,2.62
2023-02-07T01:03:34.134Z,2.57
2023-02-07T01:06:01.350Z,2.59
2023-02-07T01:08:28.392Z,2.58
2023-02-07T01:10:55.381Z,2.48
2023-02-07T01:13:23.035Z,2.52
2023-02-07T01:15:50.663Z,2.49
2023-02-07T01:18:17.822Z,2.38
2023-02-07T01:20:45.097Z,2.36
2023-02-07T01:23:13.535Z,2.48
2023-02-07T01:25:42.052Z,2.44
2023-02-07T01:28:09.087Z,2.46
2023-02-07T01:30:38.480Z,2.44
2023-02-07T01:33:05.756Z,2.42
2023-02-07T01:35:32.821Z,2.24
2023-02-07T01:38:02.057Z,2.36
2023-02-07T01:40:30.651Z,2.28
2023-02-07T01:42:59.302Z,2.20
2023-02-07T01:45:30.994Z,2.16
2023-02-07T01:48:06.702Z,2.10
2023-02-07T01:50:35.158Z,2.07
2023-02-07T01:53:05.031Z,2.01
2023-02-07T01:55:37.044Z,1.95
2023-02-07T01:58:07.229Z,2.00
2023-02-07T02:00:35.945Z,2.10
2023-02-07T02:03:03.748Z,2.13
2023-02-07T02:05:32.473Z,2.05
2023-02-07T02:07:59.582Z,2.01
2023-02-07T02:10:58.493Z,2.04
2023-02-07T02:13:47.965Z,1.95
2023-02-07T02:16:49.882Z,1.93
2023-02-07T02:20:10.255Z,1.84
2023-02-07T02:23:03.918Z,1.83
2023-02-07T02:25:58.694Z,1.73
2023-02-07T02:29:18.050Z,1.77
2023-02-07T02:32:25.515Z,1.72
2023-02-07T02:35:35.717Z,1.80
2023-02-07T02:38:56.506Z,1.84
2023-02-07T02:41:30.876Z,1.81
2023-02-07T02:44:07.663Z,1.73
2023-02-07T02:46:38.912Z,1.60
2023-02-07T02:49:12.040Z,1.59
2023-02-07T02:51:39.124Z,1.54
2023-02-07T02:54:31.954Z,1.49
2023-02-07T02:57:32.108Z,1.44
2023-02-07T03:01:02.135Z,1.48
2023-02-07T03:03:46.849Z,1.46
2023-02-07T03:06:33.905Z,1.50
2023-02-07T03:09:58.593Z,1.55
2023-02-07T03:12:43.545Z,1.52
2023-02-07T03:15:45.414Z,1.63
2023-02-07T03:18:26.915Z,1.57
2023-02-07T03:21:34.584Z,1.58
2023-02-07T03:24:42.618Z,1.55
2023-02-07T03:27:14.181Z,1.43
2023-02-07T03:29:46.318Z,1.45
2023-02-07T03:32:16.671Z,1.61
2023-02-07T03:34:50.400Z,1.61
2023-02-07T03:37:31.473Z,1.62
2023-02-07T03:39:58.530Z,1.68
2023-02-07T03:42:38.616Z,1.73
2023-02-07T03:45:09.831Z,1.70
2023-02-07T03:47:36.793Z,1.73
2023-02-07T03:50:04.484Z,1.80
2023-02-07T03:52:31.427Z,1.80
2023-02-07T03:54:58.431Z,1.83
2023-02-07T03:57:25.467Z,1.81
2023-02-07T03:59:52.468Z,1.94
2023-02-07T04:02:19.474Z,1.96
2023-02-07T04:04:46.462Z,1.91
2023-02-07T04:07:13.542Z,1.95
2023-02-07T04:09:40.499Z,2.01
2023-02-07T04:12:07.708Z,1.94
2023-02-07T04:14:34.740Z,1.94
2023-02-07T04:17:01.753Z,1.94
2023-02-07T04:19:28.753Z,1.98
2023-02-07T04:21:55.757Z,2.02
2023-02-07T04:24:22.757Z,2.00
2023-02-07T04:26:49.850Z,2.01
2023-02-07T04:29:16.872Z,2.04
2023-02-07T04:31:43.920Z,2.05
2023-02-07T04:34:12.946Z,2.03
2023-02-07T04:36:39.918Z,2.05
2023-02-07T04:39:06.964Z,2.09
2023-02-07T04:41:33.997Z,2.11
2023-02-07T04:44:00.976Z,2.12
2023-02-07T04:46:28.644Z,2.15
2023-02-07T04:48:55.727Z,2.16
2023-02-07T04:51:22.712Z,2.17
2023-02-07T04:53:49.769Z,2.13
2023-02-07T04:56:16.726Z,2.17
2023-02-07T04:58:43.912Z,2.18
2023-02-07T05:01:10.938Z,2.15
2023-02-07T05:03:37.939Z,2.19
2023-02-07T05:06:05.365Z,2.21
2023-02-07T05:08:32.370Z,2.15
2023-02-07T05:11:00.459Z,2.15
2023-02-07T05:13:27.450Z,2.22
2023-02-07T05:15:54.466Z,2.16
2023-02-07T05:18:21.975Z,2.18
2023-02-07T05:20:51.348Z,2.21
2023-02-07T05:23:19.209Z,2.17
2023-02-07T05:25:49.321Z,2.20
2023-02-07T05:28:16.856Z,2.22
2023-02-07T05:30:44.076Z,2.25
2023-02-07T05:33:11.842Z,2.23
2023-02-07T05:35:43.140Z,2.25
2023-02-07T05:38:14.532Z,2.25
2023-02-07T05:40:43.177Z,2.21
2023-02-07T05:43:11.879Z,2.24
2023-02-07T05:45:39.673Z,2.24
2023-02-07T05:48:07.550Z,2.23
2023-02-07T05:50:34.722Z,2.29
2023-02-07T05:53:02.824Z,2.22
2023-02-07T05:55:29.873Z,2.25
2023-02-07T05:57:57.188Z,2.26
2023-02-07T06:00:24.222Z,2.28
2023-02-07T06:02:51.258Z,2.30
2023-02-07T06:05:23.094Z,2.29
2023-02-07T06:07:51.926Z,2.32
2023-02-07T06:10:19.640Z,2.33
2023-02-07T06:12:47.002Z,2.30
2023-02-07T06:15:14.129Z,2.31
2023-02-07T06:17:41.261Z,2.18
2023-02-07T06:20:09.096Z,2.28
2023-02-07T06:22:36.221Z,2.22
2023-02-07T06:25:03.733Z,2.26
2023-02-07T06:27:30.695Z,2.27
2023-02-07T06:29:57.687Z,2.33
2023-02-07T06:32:24.754Z,2.28
2023-02-07T06:34:51.728Z,2.24
2023-02-07T06:37:18.704Z,2.29
2023-02-07T06:39:45.734Z,2.32
2023-02-07T06:42:12.763Z,2.33
2023-02-07T06:44:39.765Z,2.40
2023-02-07T06:47:06.777Z,5.49
2023-02-07T06:49:33.944Z,7.30
2023-02-07T06:52:00.918Z,8.43
2023-02-07T06:54:27.854Z,9.15
2023-02-07T06:56:54.892Z,9.59
2023-02-07T06:59:21.968Z,9.90
2023-02-07T07:01:49.641Z,10.19
2023-02-07T07:04:18.457Z,10.42
2023-02-07T07:06:45.597Z,10.59
2023-02-07T07:09:13.657Z,10.75
2023-02-07T07:11:43.251Z,10.88
2023-02-07T07:14:11.911Z,11.01
2023-02-07T07:16:41.007Z,11.14
2023-02-07T07:19:08.192Z,11.28
2023-02-07T07:21:35.621Z,11.39
2023-02-07T07:24:02.689Z,11.48
2023-02-07T07:26:43.094Z,11.59
2023-02-07T07:29:15.193Z,11.68
2023-02-07T07:31:42.364Z,11.73
2023-02-07T07:34:09.730Z,11.78
2023-02-07T07:36:36.814Z,11.87
2023-02-07T07:39:04.590Z,11.95
2023-02-07T07:41:32.061Z,11.99
2023-02-07T07:43:59.087Z,12.07
2023-02-07T07:46:26.133Z,12.10
2023-02-07T07:48:53.159Z,12.15
2023-02-07T07:51:20.173Z,12.17
2023-02-07T07:53:47.177Z,12.19
2023-02-07T07:56:14.193Z,12.22
2023-02-07T07:58:41.156Z,12.26
2023-02-07T08:01:08.250Z,12.28
2023-02-07T08:03:35.479Z,12.32
2023-02-07T08:06:02.469Z,12.36
2023-02-07T08:08:29.441Z,12.38
2023-02-07T08:11:06.446Z,12.42
2023-02-07T08:13:33.962Z,12.45
2023-02-07T08:16:02.474Z,12.47
2023-02-07T08:18:30.192Z,12.49
2023-02-07T08:20:57.264Z,12.50
2023-02-07T08:23:24.288Z,12.52
2023-02-07T08:25:51.548Z,12.53
2023-02-07T08:28:19.275Z,12.56
2023-02-07T08:30:49.563Z,12.57
2023-02-07T08:33:17.298Z,12.59
2023-02-07T08:35:45.000Z,12.61
2023-02-07T08:38:12.552Z,12.62
2023-02-07T08:40:39.971Z,12.63
2023-02-07T08:43:12.282Z,12.64
2023-02-07T08:45:41.628Z,12.63
2023-02-07T08:48:09.034Z,12.63
2023-02-07T08:50:36.249Z,12.62
2023-02-07T08:53:03.273Z,12.65
2023-02-07T08:55:30.840Z,12.62
2023-02-07T08:57:57.912Z,12.64
2023-02-07T09:00:25.007Z,12.65
2023-02-07T09:02:52.128Z,12.64
2023-02-07T09:05:19.236Z,12.67
2023-02-07T09:07:46.349Z,12.67
2023-02-07T09:10:13.438Z,12.67
2023-02-07T09:12:40.460Z,12.68
2023-02-07T09:15:08.127Z,12.72
2023-02-07T09:17:35.216Z,12.71
2023-02-07T09:20:02.542Z,12.71
2023-02-07T09:22:31.189Z,12.75
2023-02-07T09:24:59.261Z,12.76
2023-02-07T09:27:26.345Z,12.77
2023-02-07T09:29:53.344Z,12.79
2023-02-07T09:32:20.405Z,12.80
2023-02-07T09:34:47.580Z,12.82
2023-02-07T09:37:14.558Z,12.82
2023-02-07T09:39:43.516Z,12.85
2023-02-07T09:42:27.954Z,12.88
2023-02-07T09:45:25.885Z,12.92
2023-02-07T09:48:09.484Z,12.94
2023-02-07T09:50:48.935Z,12.96
2023-02-07T09:53:24.591Z,12.97
2023-02-07T09:55:58.825Z,12.99
2023-02-07T09:59:02.655Z,12.99
2023-02-07T10:01:47.939Z,13.00
2023-02-07T10:04:24.652Z,13.03
2023-02-07T10:06:57.937Z,13.03
2023-02-07T10:09:38.732Z,13.05
2023-02-07T10:12:25.113Z,13.07
2023-02-07T10:15:06.792Z,13.07
2023-02-07T10:18:02.002Z,13.09
2023-02-07T10:20:47.402Z,13.10
2023-02-07T10:24:03.548Z,13.12
2023-02-07T10:26:48.081Z,13.13
2023-02-07T10:29:20.885Z,13.12
2023-02-07T10:31:52.070Z,13.14
2023-02-07T10:34:28.819Z,13.14
2023-02-07T10:36:58.254Z,13.17
2023-02-07T10:39:44.160Z,13.17
2023-02-07T10:42:17.425Z,13.18
2023-02-07T10:44:44.758Z,13.19
2023-02-07T10:47:19.131Z,13.21
2023-02-07T10:49:49.701Z,13.23
2023-02-07T10:52:37.242Z,13.26
2023-02-07T10:55:09.404Z,13.28
2023-02-07T10:57:37.553Z,13.29
2023-02-07T11:00:26.730Z,13.28
2023-02-07T11:03:03.388Z,13.32
2023-02-07T11:05:38.012Z,13.33
2023-02-07T11:08:22.860Z,13.32
2023-02-07T11:10:57.318Z,13.34
2023-02-07T11:13:30.891Z,13.34
2023-02-07T11:16:08.781Z,13.35
2023-02-07T11:19:04.793Z,13.36
2023-02-07T11:21:40.824Z,13.37
2023-02-07T11:24:31.280Z,13.39
2023-02-07T11:27:13.602Z,13.38
2023-02-07T11:29:50.552Z,13.38
2023-02-07T11:32:18.826Z,13.39
2023-02-07T11:34:59.154Z,13.41
2023-02-07T11:37:27.472Z,13.41
2023-02-07T11:40:17.252Z,13.40
2023-02-07T11:42:44.300Z,13.41
2023-02-07T11:45:22.920Z,13.40
2023-02-07T11:47:55.432Z,13.41
2023-02-07T11:50:32.427Z,13.42
2023-02-07T11:53:01.857Z,13.41
2023-02-07T11:55:39.814Z,13.41
2023-02-07T11:58:20.626Z,13.41
2023-02-07T12:00:48.493Z,13.42
2023-02-07T12:03:45.070Z,13.43
2023-02-07T12:06:18.926Z,13.42
2023-02-07T12:08:46.804Z,13.40
2023-02-07T12:11:22.569Z,13.44
2023-02-07T12:14:18.700Z,13.43
2023-02-07T12:16:52.321Z,13.46
2023-02-07T12:19:33.752Z,13.47
2023-02-07T12:22:18.740Z,13.46
2023-02-07T12:25:14.456Z,13.45
2023-02-07T12:27:45.592Z,13.47
2023-02-07T12:30:45.371Z,13.46
2023-02-07T12:33:47.165Z,13.47
2023-02-07T12:36:25.999Z,13.48
2023-02-07T12:39:20.328Z,13.47
2023-02-07T12:42:14.328Z,13.48
2023-02-07T12:44:57.891Z,13.51
2023-02-07T12:47:35.860Z,13.49
2023-02-07T12:50:51.068Z,13.51
2023-02-07T12:53:45.838Z,13.51
2023-02-07T12:56:15.618Z,13.50
2023-02-07T12:58:57.584Z,13.50
2023-02-07T13:01:46.743Z,13.50
2023-02-07T13:04:51.893Z,13.54
2023-02-07T13:07:27.822Z,13.51
2023-02-07T13:10:27.233Z,13.51
2023-02-07T13:13:16.329Z,13.50
2023-02-07T13:15:59.987Z,13.54
2023-02-07T13:19:03.127Z,13.52
2023-02-07T13:21:48.111Z,13.53
2023-02-07T13:24:20.172Z,13.53
2023-02-07T13:26:54.491Z,13.56
2023-02-07T13:29:23.844Z,13.55
2023-02-07T13:32:06.089Z,13.55
2023-02-07T13:34:58.219Z,13.54
2023-02-07T13:38:02.145Z,13.54
2023-02-07T13:40:53.613Z,13.53
2023-02-07T13:43:50.889Z,13.54
2023-02-07T13:47:02.097Z,13.57
2023-02-07T13:50:03.545Z,13.57
2023-02-07T13:52:41.662Z,13.57
2023-02-07T13:55:40.453Z,13.58
2023-02-07T13:58:53.901Z,13.59
2023-02-07T14:01:25.710Z,13.58
2023-02-07T14:04:06.018Z,13.58
2023-02-07T14:06:38.574Z,13.57
2023-02-07T14:09:43.466Z,13.55
2023-02-07T14:12:26.436Z,13.55
2023-02-07T14:15:02.500Z,13.57
2023-02-07T14:17:30.196Z,13.55
2023-02-07T14:19:59.226Z,13.53
2023-02-07T14:22:31.570Z,13.57
2023-02-07T14:25:07.166Z,13.57
2023-02-07T14:28:09.539Z,13.60
2023-02-07T14:30:49.428Z,13.60
2023-02-07T14:33:21.008Z,13.57
2023-02-07T14:36:05.047Z,13.57
2023-02-07T14:39:11.129Z,13.56
2023-02-07T14:41:42.596Z,13.59
2023-02-07T14:44:39.759Z,13.58
2023-02-07T14:47:16.750Z,13.59
2023-02-07T14:49:52.367Z,13.59
2023-02-07T14:52:30.850Z,13.60
2023-02-07T14:55:20.275Z,13.58
2023-02-07T14:58:06.103Z,13.61
2023-02-07T15:00:54.983Z,13.64
2023-02-07T15:03:22.138Z,13.60
2023-02-07T15:06:01.627Z,13.62
2023-02-07T15:08:32.528Z,13.61
2023-02-07T15:11:11.058Z,13.67
2023-02-07T15:13:48.762Z,13.64
2023-02-07T15:16:23.399Z,13.67
2023-02-07T15:18:56.924Z,13.66
2023-02-07T15:21:41.960Z,13.66
2023-02-07T15:24:51.011Z,13.64
2023-02-07T15:27:27.715Z,13.62
2023-02-07T15:30:11.635Z,13.61
2023-02-07T15:32:47.388Z,13.64
2023-02-07T15:35:23.663Z,13.63
2023-02-07T15:37:51.994Z,13.65
2023-02-07T15:40:25.595Z,13.64
2023-02-07T15:42:56.528Z,13.67
2023-02-07T15:45:32.793Z,13.72
2023-02-07T15:48:03.844Z,13.75
2023-02-07T15:50:31.262Z,13.77
2023-02-07T15:53:06.801Z,13.79
2023-02-07T15:55:53.014Z,13.81
2023-02-07T15:58:34.815Z,13.81
2023-02-07T16:01:06.737Z,8.89
2023-02-07T16:03:43.242Z,7.55
2023-02-07T16:06:17.852Z,7.32
2023-02-07T16:08:46.406Z,7.21
2023-02-07T16:11:25.416Z,7.20
2023-02-07T16:14:25.587Z,7.07
2023-02-07T16:16:56.313Z,7.01
2023-02-07T16:19:28.443Z,7.02
2023-02-07T16:22:12.571Z,7.15
2023-02-07T16:24:43.288Z,7.12
2023-02-07T16:27:23.812Z,7.14
2023-02-07T16:29:51.395Z,7.07
2023-02-07T16:32:18.385Z,6.83
2023-02-07T16:34:58.955Z,6.71
2023-02-07T16:37:28.424Z,6.63
2023-02-07T16:39:55.536Z,6.55
2023-02-07T16:42:22.848Z,6.55
2023-02-07T16:44:49.849Z,6.52
2023-02-07T16:47:18.200Z,6.53
2023-02-07T16:49:46.163Z,6.37
2023-02-07T16:52:13.559Z,6.32
2023-02-07T16:54:40.643Z,6.27
2023-02-07T16:57:09.501Z,6.24
2023-02-07T16:59:36.624Z,6.17
2023-02-07T17:02:11.161Z,6.13
2023-02-07T17:04:38.285Z,6.04
2023-02-07T17:07:05.357Z,5.92
2023-02-07T17:09:32.370Z,5.88
2023-02-07T17:11:59.467Z,5.77
2023-02-07T17:14:27.641Z,5.61
2023-02-07T17:16:55.869Z,5.56
2023-02-07T17:19:24.004Z,5.55
2023-02-07T17:21:52.416Z,5.33
2023-02-07T17:24:19.497Z,5.24
2023-02-07T17:26:53.129Z,5.31
2023-02-07T17:29:20.676Z,5.35
2023-02-07T17:31:48.862Z,5.35
2023-02-07T17:34:16.471Z,5.31
2023-02-07T17:36:49.433Z,5.31
2023-02-07T17:39:18.216Z,5.22
2023-02-07T17:41:45.413Z,5.13
2023-02-07T17:44:12.430Z,5.04
2023-02-07T17:46:39.627Z,5.02
2023-02-07T17:49:14.794Z,5.07
2023-02-07T17:51:41.950Z,4.98
2023-02-07T17:54:08.994Z,4.99
2023-02-07T17:56:37.444Z,4.95
2023-02-07T17:59:07.622Z,4.94
2023-02-07T18:01:34.689Z,4.84
2023-02-07T18:04:02.596Z,4.86
2023-02-07T18:06:30.373Z,4.81
2023-02-07T18:08:58.845Z,4.71
2023-02-07T18:11:27.274Z,4.63
2023-02-07T18:13:57.113Z,4.56
2023-02-07T18:16:26.445Z,4.46
2023-02-07T18:18:56.526Z,4.34
2023-02-07T18:21:24.547Z,4.41
2023-02-07T18:23:53.428Z,4.39
2023-02-07T18:26:21.333Z,4.26
2023-02-07T18:28:49.064Z,4.18
2023-02-07T18:31:22.511Z,4.14
2023-02-07T18:33:51.109Z,4.15
2023-02-07T18:36:19.030Z,4.14
2023-02-07T18:38:46.189Z,4.20
2023-02-07T18:41:17.384Z,4.19
2023-02-07T18:43:44.428Z,4.10
2023-02-07T18:46:16.620Z,4.09
2023-02-07T18:48:45.016Z,4.04
2023-02-07T18:51:15.059Z,3.96
2023-02-07T18:53:43.238Z,3.97
2023-02-07T18:56:19.542Z,3.92
2023-02-07T18:58:47.261Z,3.87
2023-02-07T19:01:20.155Z,3.77
2023-02-07T19:03:51.398Z,3.84
2023-02-07T19:06:18.372Z,3.78
2023-02-07T19:08:45.548Z,3.80
2023-02-07T19:11:12.736Z,3.77
2023-02-07T19:13:40.200Z,3.73
2023-02-07T19:16:13.309Z,3.70
2023-02-07T19:18:41.111Z,3.69
2023-02-07T19:21:12.907Z,3.66
2023-02-07T19:23:41.348Z,3.59
2023-02-07T19:26:09.948Z,3.52
2023-02-07T19:28:38.186Z,3.43
2023-02-07T19:31:08.093Z,3.39
2023-02-07T19:33:36.511Z,3.35
2023-02-07T19:36:09.918Z,3.37
2023-02-07T19:38:37.535Z,3.29
2023-02-07T19:41:06.191Z,3.20
2023-02-07T19:43:34.620Z,3.21
2023-02-07T19:46:01.961Z,3.18
2023-02-07T19:48:29.051Z,3.24
2023-02-07T19:51:05.666Z,3.07
2023-02-07T19:53:33.412Z,2.83
2023-02-07T19:56:08.936Z,2.87
2023-02-07T19:58:37.895Z,2.89
2023-02-07T20:01:05.282Z,2.93
2023-02-07T20:03:33.417Z,2.98
2023-02-07T20:06:02.846Z,2.97
2023-02-07T20:08:34.848Z,2.94
2023-02-07T20:11:21.110Z,2.94
2023-02-07T20:13:53.565Z,2.88
2023-02-07T20:16:24.446Z,2.83
2023-02-07T20:18:53.010Z,2.81
2023-02-07T20:21:24.610Z,2.81
2023-02-07T20:23:55.944Z,2.75
2023-02-07T20:26:31.540Z,2.74
2023-02-07T20:29:01.697Z,2.77
2023-02-07T20:31:32.286Z,2.72
2023-02-07T20:34:02.001Z,2.69
2023-02-07T20:36:32.027Z,2.58
2023-02-07T20:39:00.368Z,2.58
2023-02-07T20:41:29.568Z,2.64
2023-02-07T20:44:06.235Z,2.62
2023-02-07T20:46:36.096Z,2.53
2023-02-07T20:49:12.326Z,2.53
2023-02-07T20:51:39.717Z,2.50
2023-02-07T20:54:07.353Z,2.35
2023-02-07T20:56:34.937Z,2.36
2023-02-07T20:59:02.112Z,2.35
2023-02-07T21:01:32.345Z,2.29
2023-02-07T21:04:03.476Z,2.32
2023-02-07T21:06:31.982Z,2.36
2023-02-07T21:09:02.601Z,2.36
2023-02-07T21:11:48.376Z,2.32
2023-02-07T21:14:26.064Z,2.16
2023-02-07T21:16:55.476Z,2.14
2023-02-07T21:19:24.327Z,2.16
2023-02-07T21:21:52.555Z,2.07
2023-02-07T21:24:19.763Z,1.86
2023-02-07T21:26:51.620Z,1.85
2023-02-07T21:29:20.661Z,1.73
2023-02-07T21:31:48.903Z,1.73
2023-02-07T21:34:17.900Z,1.73
2023-02-07T21:36:45.093Z,1.73
2023-02-07T21:39:12.674Z,1.73
2023-02-07T21:41:44.400Z,1.71
2023-02-07T21:44:13.021Z,1.73
2023-02-07T21:46:43.166Z,1.78
2023-02-07T21:49:17.218Z,1.73
2023-02-07T21:51:48.114Z,1.80
2023-02-07T21:54:15.660Z,1.82
2023-02-07T21:56:43.949Z,1.80
2023-02-07T21:59:15.405Z,1.77
2023-02-07T22:01:44.204Z,1.75
2023-02-07T22:04:11.944Z,1.70
2023-02-07T22:06:42.215Z,1.72
2023-02-07T22:09:12.934Z,1.67
2023-02-07T22:11:40.846Z,1.65
2023-02-07T22:14:08.113Z,1.60
2023-02-07T22:16:35.268Z,1.57
2023-02-07T22:19:06.417Z,1.52
2023-02-07T22:21:37.888Z,1.43
2023-02-07T22:24:06.640Z,1.44
2023-02-07T22:26:34.978Z,1.36
2023-02-07T22:29:02.670Z,1.35
2023-02-07T22:31:32.598Z,1.39
2023-02-07T22:34:09.738Z,1.36
2023-02-07T22:36:40.980Z,1.34
2023-02-07T22:39:09.029Z,1.40
2023-02-07T22:41:36.515Z,1.41
2023-02-07T22:44:04.733Z,1.40
2023-02-07T22:46:31.845Z,1.31
2023-02-07T22:48:58.883Z,1.29
2023-02-07T22:51:35.437Z,1.27
2023-02-07T22:54:06.782Z,1.24
2023-02-07T22:56:36.824Z,1.19
2023-02-07T22:59:05.062Z,1.15
2023-02-07T23:01:39.839Z,1.11
2023-02-07T23:04:12.953Z,1.13
2023-02-07T23:06:40.097Z,1.14
2023-02-07T23:09:08.194Z,1.15
2023-02-07T23:11:35.502Z,1.17
2023-02-07T23:14:03.952Z,1.21
2023-02-07T23:16:32.171Z,1.27
2023-02-07T23:19:06.657Z,1.22
2023-02-07T23:21:33.873Z,1.11
2023-02-07T23:24:00.918Z,1.04
2023-02-07T23:26:28.065Z,1.07
2023-02-07T23:28:55.216Z,1.10
2023-02-07T23:31:24.977Z,1.13
2023-02-07T23:33:52.911Z,1.15
2023-02-07T23:36:20.948Z,1.13
2023-02-07T23:38:49.231Z,1.07
2023-02-07T23:41:17.174Z,1.11
2023-02-07T23:43:44.502Z,1.08
2023-02-07T23:46:13.453Z,1.07
2023-02-07T23:48:40.437Z,1.09
2023-02-07T23:51:07.629Z,1.11
2023-02-07T23:53:35.361Z,1.05
2023-02-07T23:56:05.247Z,1.03
2023-02-07T23:58:33.247Z,0.98
